createdAt,value
2018-04-02T00:02:26.642Z,99.90
2018-04-02T00:04:58.146Z,99.90
2018-04-02T00:07:29.369Z,99.90
2018-04-02T00:09:59.759Z,99.90
2018-04-02T00:12:30.292Z,99.90
2018-04-02T00:15:01.019Z,99.90
2018-04-02T00:17:31.339Z,99.90
2018-04-02T00:20:02.682Z,99.90
2018-04-02T00:22:33.408Z,99.90
2018-04-02T00:25:03.766Z,99.90
2018-04-02T00:27:34.138Z,99.90
2018-04-02T00:30:04.770Z,99.90
2018-04-02T00:32:35.121Z,99.90
2018-04-02T00:35:06.504Z,99.90
2018-04-02T00:37:36.936Z,99.90
2018-04-02T00:40:07.572Z,99.90
2018-04-02T00:42:38.698Z,99.90
2018-04-02T00:45:09.070Z,99.90
2018-04-02T00:47:39.670Z,99.90
2018-04-02T00:50:10.123Z,99.90
2018-04-02T00:52:40.699Z,99.90
2018-04-02T00:55:11.010Z,99.90
2018-04-02T00:57:41.592Z,99.90
2018-04-02T01:00:12.112Z,99.90
2018-04-02T01:02:42.578Z,99.90
2018-04-02T01:05:13.733Z,99.90
2018-04-02T01:07:45.116Z,99.90
2018-04-02T01:10:15.466Z,99.90
2018-04-02T01:12:45.798Z,99.90
2018-04-02T01:15:16.178Z,99.90
2018-04-02T01:17:47.020Z,99.90
2018-04-02T01:20:17.382Z,99.90
2018-04-02T01:22:47.743Z,99.90
2018-04-02T01:25:19.131Z,99.90
2018-04-02T01:27:49.466Z,99.90
2018-04-02T01:30:19.891Z,99.90
2018-04-02T01:32:51.318Z,99.90
2018-04-02T01:35:21.649Z,99.90
2018-04-02T01:37:52.098Z,99.90
2018-04-02T01:40:22.686Z,99.90
2018-04-02T01:42:53.124Z,99.90
2018-04-02T01:45:23.489Z,99.90
2018-04-02T01:47:54.548Z,99.90
2018-04-02T01:50:25.698Z,99.90
2018-04-02T01:52:56.069Z,99.90
2018-04-02T01:55:26.559Z,99.90
2018-04-02T01:57:57.250Z,99.90
2018-04-02T02:00:27.581Z,99.90
2018-04-02T02:02:58.333Z,99.90
2018-04-02T02:05:28.749Z,99.90
2018-04-02T02:07:59.643Z,99.90
2018-04-02T02:10:30.167Z,99.90
2018-04-02T02:13:00.882Z,99.90
2018-04-02T02:15:31.361Z,99.90
2018-04-02T02:18:02.531Z,99.90
2018-04-02T02:20:33.046Z,99.90
2018-04-02T02:23:03.426Z,99.90
2018-04-02T02:25:34.022Z,99.90
2018-04-02T02:28:04.526Z,99.90
2018-04-02T02:30:35.714Z,99.90
2018-04-02T02:33:06.315Z,99.90
2018-04-02T02:35:36.795Z,99.90
2018-04-02T02:38:07.126Z,99.90
2018-04-02T02:40:38.780Z,99.90
2018-04-02T02:43:09.328Z,99.90
2018-04-02T02:45:40.539Z,99.90
2018-04-02T02:48:10.874Z,99.90
2018-04-02T02:50:41.245Z,99.90
2018-04-02T02:53:11.746Z,99.90
2018-04-02T02:55:42.991Z,99.90
2018-04-02T02:58:15.030Z,99.90
2018-04-02T03:00:46.169Z,99.90
2018-04-02T03:03:16.945Z,99.90
2018-04-02T03:05:47.300Z,99.90
2018-04-02T03:08:17.684Z,99.90
2018-04-02T03:10:48.267Z,99.90
2018-04-02T03:13:18.631Z,99.90
2018-04-02T03:15:49.162Z,99.90
2018-04-02T03:18:20.715Z,99.90
2018-04-02T03:20:51.055Z,99.90
2018-04-02T03:23:22.143Z,99.90
2018-04-02T03:25:52.526Z,99.90
2018-04-02T03:28:24.059Z,99.90
2018-04-02T03:30:54.506Z,99.90
2018-04-02T03:33:24.862Z,99.90
2018-04-02T03:35:55.615Z,99.90
2018-04-02T03:38:26.222Z,99.90
2018-04-02T03:40:57.338Z,99.90
2018-04-02T03:43:29.107Z,99.90
2018-04-02T03:45:59.788Z,99.90
2018-04-02T03:48:30.182Z,99.90
2018-04-02T03:51:00.554Z,99.90
2018-04-02T03:53:31.268Z,99.90
2018-04-02T03:56:01.655Z,99.90
2018-04-02T03:58:31.993Z,99.90
2018-04-02T04:01:02.639Z,99.90
2018-04-02T04:03:33.027Z,99.90
2018-04-02T04:06:03.464Z,99.90
2018-04-02T04:08:33.899Z,99.90
2018-04-02T04:11:04.574Z,99.90
2018-04-02T04:13:34.971Z,99.90
2018-04-02T04:16:05.593Z,99.90
2018-04-02T04:18:36.267Z,99.90
2018-04-02T04:21:06.960Z,99.90
2018-04-02T04:23:37.659Z,99.90
2018-04-02T04:26:09.054Z,99.90
2018-04-02T04:28:39.629Z,99.90
2018-04-02T04:31:10.780Z,99.90
2018-04-02T04:33:41.181Z,99.90
2018-04-02T04:36:11.840Z,99.90
2018-04-02T04:38:42.204Z,99.90
2018-04-02T04:41:12.546Z,99.90
2018-04-02T04:43:43.770Z,99.90
2018-04-02T04:46:14.103Z,99.90
2018-04-02T04:48:44.679Z,99.90
2018-04-02T04:51:16.297Z,99.90
2018-04-02T04:53:46.740Z,99.90
2018-04-02T04:56:17.358Z,99.90
2018-04-02T04:58:47.959Z,99.90
2018-04-02T05:01:18.762Z,99.90
2018-04-02T05:03:49.174Z,99.90
2018-04-02T05:06:20.785Z,99.90
2018-04-02T05:08:51.210Z,99.90
2018-04-02T05:11:21.599Z,99.90
2018-04-02T05:13:52.265Z,99.90
2018-04-02T05:16:22.684Z,99.90
2018-04-02T05:18:53.345Z,99.90
2018-04-02T05:21:24.414Z,99.90
2018-04-02T05:23:55.551Z,99.90
2018-04-02T05:26:26.650Z,99.90
2018-04-02T05:28:57.296Z,99.90
2018-04-02T05:31:28.890Z,99.90
2018-04-02T05:33:59.586Z,99.90
2018-04-02T05:36:30.018Z,99.90
2018-04-02T05:39:00.412Z,99.90
2018-04-02T05:41:31.025Z,99.90
2018-04-02T05:44:01.736Z,99.90
2018-04-02T05:46:33.356Z,99.90
2018-04-02T05:49:03.890Z,99.90
2018-04-02T05:51:35.362Z,99.90
2018-04-02T05:54:06.739Z,99.90
2018-04-02T05:56:37.058Z,99.90
2018-04-02T05:59:08.003Z,99.90
2018-04-02T06:01:38.607Z,99.90
2018-04-02T06:04:09.212Z,99.90
2018-04-02T06:06:40.420Z,99.90
2018-04-02T06:09:10.787Z,99.90
2018-04-02T06:11:41.478Z,99.90
2018-04-02T06:14:12.402Z,99.90
2018-04-02T06:16:43.341Z,99.90
2018-04-02T06:19:13.706Z,99.90
2018-04-02T06:21:44.020Z,99.90
2018-04-02T06:24:14.531Z,99.90
2018-04-02T06:26:45.132Z,99.90
2018-04-02T06:29:15.462Z,99.90
2018-04-02T06:32:29.141Z,99.90
2018-04-02T06:35:00.493Z,99.90
2018-04-02T06:37:31.236Z,99.90
2018-04-02T06:40:01.575Z,99.90
2018-04-02T06:42:33.265Z,99.90
2018-04-02T06:45:03.868Z,99.90
2018-04-02T06:47:34.535Z,99.90
2018-04-02T06:50:05.267Z,99.90
2018-04-02T06:52:35.567Z,99.90
2018-04-02T06:55:05.894Z,99.90
2018-04-02T06:57:36.958Z,99.90
2018-04-02T07:00:07.499Z,99.90
2018-04-02T07:02:37.886Z,99.90
2018-04-02T07:05:08.247Z,99.90
2018-04-02T07:07:39.162Z,99.90
2018-04-02T07:10:09.529Z,99.90
2018-04-02T07:12:39.891Z,99.90
2018-04-02T07:15:11.390Z,99.90
2018-04-02T07:17:41.831Z,99.90
2018-04-02T07:20:12.162Z,99.90
2018-04-02T07:22:42.616Z,99.90
2018-04-02T07:25:13.966Z,99.90
2018-04-02T07:27:44.929Z,99.90
2018-04-02T07:30:15.486Z,99.90
2018-04-02T07:32:46.177Z,99.90
2018-04-02T07:35:16.780Z,99.90
2018-04-02T07:37:47.099Z,99.90
2018-04-02T07:40:17.436Z,99.90
2018-04-02T07:42:48.815Z,99.90
2018-04-02T07:45:19.265Z,99.90
2018-04-02T07:47:50.477Z,99.90
2018-04-02T07:50:21.115Z,99.90
2018-04-02T07:52:51.463Z,99.90
2018-04-02T07:55:22.067Z,99.90
2018-04-02T07:57:52.366Z,99.90
2018-04-02T08:00:23.455Z,99.90
2018-04-02T08:02:53.966Z,99.90
2018-04-02T08:05:24.559Z,99.90
2018-04-02T08:07:55.776Z,99.90
2018-04-02T08:10:26.086Z,99.90
2018-04-02T08:12:56.712Z,99.90
2018-04-02T08:15:28.544Z,99.90
2018-04-02T08:17:58.897Z,99.90
2018-04-02T08:20:29.343Z,99.90
2018-04-02T08:22:59.807Z,99.90
2018-04-02T08:25:30.375Z,99.90
2018-04-02T08:28:00.958Z,99.90
2018-04-02T08:30:31.599Z,99.90
2018-04-02T08:33:02.935Z,99.90
2018-04-02T08:35:33.775Z,99.90
2018-04-02T08:38:05.324Z,99.90
2018-04-02T08:40:36.779Z,99.90
2018-04-02T08:43:07.917Z,99.90
2018-04-02T08:45:38.378Z,99.90
2018-04-02T08:48:09.064Z,99.90
2018-04-02T08:50:40.471Z,99.90
2018-04-02T08:53:11.721Z,99.90
2018-04-02T08:55:42.483Z,99.90
2018-04-02T08:58:13.054Z,99.90
2018-04-02T09:00:43.477Z,99.90
2018-04-02T09:03:13.946Z,99.90
2018-04-02T09:05:45.571Z,99.90
2018-04-02T09:08:16.065Z,99.90
2018-04-02T09:10:47.646Z,99.90
2018-04-02T09:13:18.090Z,99.90
2018-04-02T09:15:48.605Z,99.90
2018-04-02T09:18:19.303Z,99.90
2018-04-02T09:20:49.707Z,99.90
2018-04-02T09:23:20.078Z,99.90
2018-04-02T09:25:50.674Z,99.90
2018-04-02T09:28:21.903Z,99.90
2018-04-02T09:30:53.072Z,99.90
2018-04-02T09:33:23.752Z,99.90
2018-04-02T09:35:54.147Z,99.90
2018-04-02T09:38:24.478Z,99.90
2018-04-02T09:40:55.049Z,99.90
2018-04-02T09:43:25.478Z,99.90
2018-04-02T09:45:56.189Z,99.90
2018-04-02T09:48:26.736Z,99.90
2018-04-02T09:50:57.176Z,99.90
2018-04-02T09:53:27.519Z,99.90
2018-04-02T09:55:58.867Z,99.90
2018-04-02T09:58:29.961Z,99.90
2018-04-02T10:01:01.383Z,99.90
2018-04-02T10:03:36.086Z,99.90
2018-04-02T10:06:07.208Z,99.90
2018-04-02T10:08:38.607Z,99.90
2018-04-02T10:11:08.942Z,99.90
2018-04-02T10:13:39.290Z,99.90
2018-04-02T10:16:09.939Z,99.90
2018-04-02T10:18:41.106Z,99.90
2018-04-02T10:21:12.211Z,99.90
2018-04-02T10:23:42.782Z,99.90
2018-04-02T10:26:13.441Z,99.90
2018-04-02T10:28:44.041Z,99.90
2018-04-02T10:31:14.687Z,99.90
2018-04-02T10:33:45.210Z,99.70
2018-04-02T10:36:15.919Z,97.90
2018-04-02T10:38:46.660Z,96.70
2018-04-02T10:41:17.797Z,98.70
2018-04-02T10:43:48.659Z,98.60
2018-04-02T10:46:19.278Z,98.60
2018-04-02T10:48:50.372Z,97.80
2018-04-02T10:51:20.758Z,97.80
2018-04-02T10:53:51.615Z,97.00
2018-04-02T10:56:22.762Z,94.20
2018-04-02T10:58:53.214Z,94.30
2018-04-02T11:01:23.925Z,94.70
2018-04-02T11:03:54.283Z,80.00
2018-04-02T11:06:24.594Z,93.30
2018-04-02T11:08:55.178Z,85.00
2018-04-02T11:11:25.531Z,80.10
2018-04-02T11:13:56.034Z,82.10
2018-04-02T11:16:26.881Z,81.10
2018-04-02T11:18:57.327Z,80.50
2018-04-02T11:21:27.669Z,93.10
2018-04-02T11:23:58.259Z,93.70
2018-04-02T11:26:28.747Z,92.80
2018-04-02T11:28:59.062Z,94.70
2018-04-02T11:31:29.749Z,92.10
2018-04-02T11:34:00.166Z,88.80
2018-04-02T11:36:30.496Z,87.00
2018-04-02T11:39:01.082Z,93.50
2018-04-02T11:41:32.190Z,88.90
2018-04-02T11:44:03.552Z,91.10
2018-04-02T11:46:33.898Z,91.00
2018-04-02T11:49:05.039Z,81.50
2018-04-02T11:51:36.661Z,90.30
2018-04-02T11:54:06.979Z,90.30
2018-04-02T11:56:37.458Z,92.60
2018-04-02T11:59:08.039Z,93.50
2018-04-02T12:01:38.406Z,90.70
2018-04-02T12:04:09.549Z,90.60
2018-04-02T12:06:40.932Z,85.80
2018-04-02T12:09:11.737Z,85.90
2018-04-02T12:11:42.367Z,82.90
2018-04-02T12:14:12.950Z,69.30
2018-04-02T12:16:43.330Z,81.20
2018-04-02T12:19:13.770Z,76.30
2018-04-02T12:21:44.378Z,70.40
2018-04-02T12:24:15.566Z,60.10
2018-04-02T12:26:46.150Z,59.60
2018-04-02T12:29:16.491Z,59.40
2018-04-02T12:31:46.860Z,58.40
2018-04-02T12:34:17.590Z,55.00
2018-04-02T12:36:48.627Z,52.30
2018-04-02T12:39:18.997Z,58.70
2018-04-02T12:41:50.686Z,57.80
2018-04-02T12:44:21.084Z,57.80
2018-04-02T12:46:51.536Z,55.60
2018-04-02T12:49:22.250Z,55.60
2018-04-02T12:51:52.757Z,56.50
2018-04-02T12:54:23.951Z,64.70
2018-04-02T12:56:54.584Z,64.60
2018-04-02T12:59:25.995Z,65.50
2018-04-02T13:01:56.654Z,65.90
2018-04-02T13:04:27.293Z,56.40
2018-04-02T13:06:57.650Z,57.00
2018-04-02T13:09:28.010Z,52.40
2018-04-02T13:11:58.725Z,50.70
2018-04-02T13:14:29.933Z,51.60
2018-04-02T13:17:05.173Z,51.60
2018-04-02T13:19:36.851Z,51.90
2018-04-02T13:22:07.751Z,51.90
2018-04-02T13:24:38.183Z,52.60
2018-04-02T13:27:08.643Z,57.20
2018-04-02T13:29:39.339Z,55.00
2018-04-02T13:32:09.884Z,59.30
2018-04-02T13:34:40.255Z,55.20
2018-04-02T13:37:10.930Z,53.80
2018-04-02T13:39:41.622Z,53.50
2018-04-02T13:42:12.928Z,59.40
2018-04-02T13:44:43.297Z,59.30
2018-04-02T13:47:14.095Z,69.20
2018-04-02T13:49:44.485Z,64.30
2018-04-02T13:52:14.820Z,67.50
2018-04-02T13:54:46.125Z,66.20
2018-04-02T13:57:16.631Z,61.10
2018-04-02T13:59:47.721Z,64.80
2018-04-02T14:02:18.308Z,64.80
2018-04-02T14:04:48.651Z,67.70
2018-04-02T14:07:19.050Z,75.60
2018-04-02T14:09:50.560Z,78.30
2018-04-02T14:12:20.898Z,78.20
2018-04-02T14:14:51.842Z,76.10
2018-04-02T14:17:22.411Z,77.20
2018-04-02T14:19:52.989Z,73.50
2018-04-02T14:22:23.432Z,70.20
2018-04-02T14:24:54.086Z,65.60
2018-04-02T14:27:25.190Z,64.80
2018-04-02T14:29:55.577Z,64.90
2018-04-02T14:32:26.334Z,67.60
2018-04-02T14:34:56.737Z,62.40
2018-04-02T14:37:28.075Z,61.10
2018-04-02T14:39:58.659Z,59.00
2018-04-02T14:42:28.994Z,59.90
2018-04-02T14:45:00.818Z,64.90
2018-04-02T14:47:31.314Z,65.00
2018-04-02T14:50:01.643Z,75.60
2018-04-02T14:52:32.303Z,79.70
2018-04-02T14:55:03.011Z,82.80
2018-04-02T14:57:33.366Z,82.70
2018-04-02T15:00:03.792Z,77.40
2018-04-02T15:02:34.117Z,83.80
2018-04-02T15:05:05.017Z,84.70
2018-04-02T15:07:35.358Z,86.60
2018-04-02T15:10:05.771Z,85.40
2018-04-02T15:12:36.126Z,86.00
2018-04-02T15:15:06.730Z,86.40
2018-04-02T15:17:37.325Z,83.50
2018-04-02T15:20:07.958Z,85.40
2018-04-02T15:22:38.696Z,87.70
2018-04-02T15:25:09.850Z,89.20
2018-04-02T15:27:40.242Z,89.30
2018-04-02T15:30:10.844Z,87.70
2018-04-02T15:32:41.242Z,90.60
2018-04-02T15:35:12.041Z,91.00
2018-04-02T15:37:43.394Z,90.40
2018-04-02T15:40:13.798Z,90.40
2018-04-02T15:42:44.152Z,86.90
2018-04-02T15:45:15.628Z,89.10
2018-04-02T15:47:46.050Z,85.60
2018-04-02T15:50:16.774Z,84.30
2018-04-02T15:52:47.343Z,86.20
2018-04-02T15:55:17.676Z,88.50
2018-04-02T15:57:48.268Z,82.90
2018-04-02T16:00:18.648Z,85.40
2018-04-02T16:02:49.805Z,86.00
2018-04-02T16:05:21.612Z,86.40
2018-04-02T16:07:51.982Z,86.40
2018-04-02T16:10:23.408Z,84.70
2018-04-02T16:12:54.283Z,84.70
2018-04-02T16:15:25.482Z,84.80
2018-04-02T16:17:56.005Z,84.70
2018-04-02T16:20:26.715Z,84.00
2018-04-02T16:22:57.197Z,85.10
2018-04-02T16:25:27.754Z,86.40
2018-04-02T16:27:58.351Z,86.20
2018-04-02T16:30:28.997Z,86.90
2018-04-02T16:33:00.436Z,86.80
2018-04-02T16:35:33.037Z,86.80
2018-04-02T16:38:04.292Z,87.60
2018-04-02T16:40:34.911Z,87.60
2018-04-02T16:43:06.142Z,88.80
2018-04-02T16:45:37.049Z,88.80
2018-04-02T16:48:07.690Z,90.30
2018-04-02T16:50:38.481Z,90.00
2018-04-02T16:53:08.855Z,90.60
2018-04-02T16:55:39.939Z,91.40
2018-04-02T16:58:10.692Z,91.30
2018-04-02T17:00:41.093Z,91.50
2018-04-02T17:03:11.857Z,91.40
2018-04-02T17:05:42.258Z,92.80
2018-04-02T17:08:12.956Z,94.40
2018-04-02T17:10:44.110Z,97.20
2018-04-02T17:13:15.241Z,97.70
2018-04-02T17:15:45.815Z,97.70
2018-04-02T17:18:16.414Z,98.30
2018-04-02T17:20:47.659Z,98.50
2018-04-02T17:23:19.001Z,99.00
2018-04-02T17:25:49.592Z,99.00
2018-04-02T17:28:19.964Z,99.30
2018-04-02T17:30:51.383Z,99.90
2018-04-02T17:33:22.495Z,99.90
2018-04-02T17:35:53.011Z,99.90
2018-04-02T17:38:23.838Z,99.90
2018-04-02T17:40:54.451Z,99.90
2018-04-02T17:43:25.545Z,99.90
2018-04-02T17:45:55.914Z,99.90
2018-04-02T17:48:26.694Z,99.90
2018-04-02T17:50:57.525Z,99.90
2018-04-02T17:53:27.921Z,99.90
2018-04-02T17:55:58.298Z,99.90
2018-04-02T17:58:28.623Z,99.90
2018-04-02T18:00:59.466Z,99.90
2018-04-02T18:03:29.819Z,99.90
2018-04-02T18:06:00.956Z,99.90
2018-04-02T18:08:31.647Z,99.90
2018-04-02T18:11:02.076Z,99.90
2018-04-02T18:13:32.455Z,99.90
2018-04-02T18:16:05.093Z,99.90
2018-04-02T18:18:35.555Z,99.90
2018-04-02T18:21:06.016Z,99.90
2018-04-02T18:23:36.848Z,99.90
2018-04-02T18:26:07.196Z,99.90
2018-04-02T18:28:37.518Z,99.90
2018-04-02T18:31:08.156Z,99.90
2018-04-02T18:33:38.580Z,99.90
2018-04-02T18:36:08.986Z,99.90
2018-04-02T18:38:39.692Z,99.90
2018-04-02T18:41:10.126Z,99.90
2018-04-02T18:43:40.527Z,99.90
2018-04-02T18:46:12.063Z,99.90
2018-04-02T18:48:43.502Z,99.90
2018-04-02T18:51:13.897Z,99.90
2018-04-02T18:53:44.587Z,99.90
2018-04-02T18:56:15.247Z,99.90
2018-04-02T18:58:45.566Z,99.90
2018-04-02T19:01:16.195Z,99.90
2018-04-02T19:03:46.612Z,99.90
2018-04-02T19:06:16.922Z,99.90
2018-04-02T19:08:48.359Z,99.90
2018-04-02T19:11:19.587Z,99.90
2018-04-02T19:13:50.171Z,99.90
2018-04-02T19:16:21.653Z,99.90
2018-04-02T19:18:52.046Z,99.90
2018-04-02T19:21:22.479Z,99.90
2018-04-02T19:23:53.070Z,99.90
2018-04-02T19:26:23.775Z,99.90
2018-04-02T19:28:54.482Z,99.90
2018-04-02T19:31:25.087Z,99.90
2018-04-02T19:33:55.426Z,99.90
2018-04-02T19:36:25.743Z,99.90
2018-04-02T19:38:56.471Z,99.90
2018-04-02T19:41:26.834Z,99.90
2018-04-02T19:43:57.167Z,99.90
2018-04-02T19:46:27.738Z,99.90
2018-04-02T19:48:58.059Z,99.90
2018-04-02T19:51:29.549Z,99.90
2018-04-02T19:54:00.009Z,99.90
2018-04-02T19:56:30.462Z,99.90
2018-04-02T19:59:01.165Z,99.90
2018-04-02T20:01:32.218Z,99.90
2018-04-02T20:04:02.719Z,99.90
2018-04-02T20:06:33.604Z,99.90
2018-04-02T20:09:04.201Z,99.90
2018-04-02T20:11:34.663Z,99.90
2018-04-02T20:14:05.422Z,99.90
2018-04-02T20:16:36.091Z,99.90
2018-04-02T20:19:06.491Z,99.90
2018-04-02T20:21:37.085Z,99.90
2018-04-02T20:24:08.718Z,99.90
2018-04-02T20:26:40.306Z,99.90
2018-04-02T20:29:10.815Z,99.90
2018-04-02T20:31:41.935Z,99.90
2018-04-02T20:34:13.076Z,99.90
2018-04-02T20:36:44.400Z,99.90
2018-04-02T20:39:15.628Z,99.90
2018-04-02T20:41:46.182Z,99.90
2018-04-02T20:44:16.844Z,99.90
2018-04-02T20:46:48.354Z,99.90
2018-04-02T20:49:18.813Z,99.90
2018-04-02T20:51:49.482Z,99.90
2018-04-02T20:54:20.106Z,99.90
2018-04-02T20:56:50.530Z,99.90
2018-04-02T20:59:21.258Z,99.90
2018-04-02T21:01:51.662Z,99.90
2018-04-02T21:04:22.008Z,99.90
2018-04-02T21:06:53.644Z,99.90
2018-04-02T21:09:24.121Z,99.90
2018-04-02T21:11:58.760Z,99.90
2018-04-02T21:14:29.989Z,99.90
2018-04-02T21:17:00.437Z,99.90
2018-04-02T21:19:30.875Z,99.90
2018-04-02T21:22:02.427Z,99.90
2018-04-02T21:24:32.742Z,99.90
2018-04-02T21:27:03.912Z,99.90
2018-04-02T21:29:36.046Z,99.90
2018-04-02T21:32:07.823Z,99.90
2018-04-02T21:34:38.499Z,99.90
2018-04-02T21:37:08.878Z,99.90
2018-04-02T21:39:39.572Z,99.90
2018-04-02T21:42:09.957Z,99.90
2018-04-02T21:44:41.135Z,99.90
2018-04-02T21:47:13.224Z,99.90
2018-04-02T21:49:43.566Z,99.90
2018-04-02T21:52:14.728Z,99.90
2018-04-02T21:54:46.139Z,99.90
2018-04-02T21:57:16.501Z,99.90
2018-04-02T21:59:47.962Z,99.90
2018-04-02T22:02:18.582Z,99.90
2018-04-02T22:04:48.921Z,99.90
2018-04-02T22:07:22.354Z,99.90
2018-04-02T22:09:54.011Z,99.90
2018-04-02T22:12:24.501Z,99.90
2018-04-02T22:14:55.595Z,99.90
2018-04-02T22:17:27.219Z,99.90
2018-04-02T22:19:57.558Z,99.90
2018-04-02T22:22:28.407Z,99.90
2018-04-02T22:24:59.046Z,99.90
2018-04-02T22:27:30.279Z,99.90
2018-04-02T22:30:00.692Z,99.90
2018-04-02T22:32:31.340Z,99.90
2018-04-02T22:35:01.652Z,99.90
2018-04-02T22:37:32.356Z,99.90
2018-04-02T22:40:03.424Z,99.90
2018-04-02T22:42:36.312Z,99.90
2018-04-02T22:45:08.074Z,99.90
2018-04-02T22:47:38.926Z,99.90
2018-04-02T22:50:09.613Z,99.90
2018-04-02T22:52:40.471Z,99.90
2018-04-02T22:55:10.921Z,99.90
2018-04-02T22:57:41.329Z,99.90
2018-04-02T23:00:11.900Z,99.90
2018-04-02T23:02:42.530Z,99.90
2018-04-02T23:05:13.670Z,99.90
2018-04-02T23:07:44.920Z,99.90
2018-04-02T23:10:16.339Z,99.90
2018-04-02T23:12:47.722Z,99.90
2018-04-02T23:15:18.909Z,99.90
2018-04-02T23:17:49.570Z,99.90
2018-04-02T23:20:20.080Z,99.90
2018-04-02T23:22:54.260Z,99.90
2018-04-02T23:25:24.867Z,99.90
2018-04-02T23:27:56.125Z,99.90
2018-04-02T23:30:26.577Z,99.90
2018-04-02T23:32:57.319Z,99.90
2018-04-02T23:35:27.723Z,99.90
2018-04-02T23:37:58.364Z,99.90
2018-04-02T23:40:29.162Z,99.90
2018-04-02T23:42:59.894Z,99.90
2018-04-02T23:45:31.291Z,99.90
2018-04-02T23:50:21.869Z,99.90
2018-04-02T23:52:53.015Z,99.90
2018-04-02T23:55:24.611Z,99.90
2018-04-02T23:57:56.161Z,99.90
